sensor_id;sensor_type;location;lat;lon;timestamp;pressure;altitude;pressure_sealevel;temperature;humidity
48630;BME280;34426;52.180;4.462;2023-05-03T00:01:13;103063.94;;;6.73;74.61
48630;BME280;34426;52.180;4.462;2023-05-03T00:03:38;103067.16;;;6.61;74.89
48630;BME280;34426;52.180;4.462;2023-05-03T00:06:10;103064.38;;;6.61;75.12
48630;BME280;34426;52.180;4.462;2023-05-03T00:08:36;103065.81;;;6.57;75.49
48630;BME280;34426;52.180;4.462;2023-05-03T00:11:03;103073.47;;;6.55;75.74
48630;BME280;34426;52.180;4.462;2023-05-03T00:13:28;103068.94;;;6.54;76.25
48630;BME280;34426;52.180;4.462;2023-05-03T00:15:54;103064.25;;;6.55;76.03
48630;BME280;34426;52.180;4.462;2023-05-03T00:18:19;103069.44;;;6.58;75.92
48630;BME280;34426;52.180;4.462;2023-05-03T00:20:44;103068.28;;;6.52;76.35
48630;BME280;34426;52.180;4.462;2023-05-03T00:23:10;103070.09;;;6.45;76.76
48630;BME280;34426;52.180;4.462;2023-05-03T00:25:35;103064.53;;;6.45;76.81
48630;BME280;34426;52.180;4.462;2023-05-03T00:28:02;103062.31;;;6.41;76.13
48630;BME280;34426;52.180;4.462;2023-05-03T00:30:28;103061.44;;;6.40;77.34
48630;BME280;34426;52.180;4.462;2023-05-03T00:32:53;103062.81;;;6.44;77.09
48630;BME280;34426;52.180;4.462;2023-05-03T00:35:19;103061.75;;;6.45;76.97
48630;BME280;34426;52.180;4.462;2023-05-03T00:37:45;103060.78;;;6.38;76.49
48630;BME280;34426;52.180;4.462;2023-05-03T00:40:11;103078.13;;;6.40;77.58
48630;BME280;34426;52.180;4.462;2023-05-03T00:42:36;103071.22;;;6.36;76.91
48630;BME280;34426;52.180;4.462;2023-05-03T00:45:04;103074.06;;;6.28;77.08
48630;BME280;34426;52.180;4.462;2023-05-03T00:47:30;103082.34;;;6.36;77.58
48630;BME280;34426;52.180;4.462;2023-05-03T00:49:55;103078.19;;;6.32;76.94
48630;BME280;34426;52.180;4.462;2023-05-03T00:52:21;103083.19;;;6.37;77.79
48630;BME280;34426;52.180;4.462;2023-05-03T00:54:46;103086.03;;;6.28;77.37
48630;BME280;34426;52.180;4.462;2023-05-03T00:57:12;103086.91;;;6.29;78.02
48630;BME280;34426;52.180;4.462;2023-05-03T00:59:38;103077.88;;;6.27;77.77
48630;BME280;34426;52.180;4.462;2023-05-03T01:02:05;103087.63;;;6.23;77.66
48630;BME280;34426;52.180;4.462;2023-05-03T01:04:31;103085.22;;;6.20;78.11
48630;BME280;34426;52.180;4.462;2023-05-03T01:07:07;103080.72;;;6.19;78.13
48630;BME280;34426;52.180;4.462;2023-05-03T01:09:36;103090.47;;;6.15;78.09
48630;BME280;34426;52.180;4.462;2023-05-03T01:12:19;103083.03;;;6.07;78.61
48630;BME280;34426;52.180;4.462;2023-05-03T01:14:55;103077.97;;;6.11;78.20
48630;BME280;34426;52.180;4.462;2023-05-03T01:17:27;103080.66;;;6.04;77.96
48630;BME280;34426;52.180;4.462;2023-05-03T01:19:55;103079.41;;;6.07;78.07
48630;BME280;34426;52.180;4.462;2023-05-03T01:22:28;103069.53;;;6.04;78.36
48630;BME280;34426;52.180;4.462;2023-05-03T01:25:00;103071.81;;;6.00;78.63
48630;BME280;34426;52.180;4.462;2023-05-03T01:27:30;103077.75;;;5.97;78.63
48630;BME280;34426;52.180;4.462;2023-05-03T01:29:55;103073.09;;;5.90;79.10
48630;BME280;34426;52.180;4.462;2023-05-03T01:32:25;103064.41;;;5.85;78.90
48630;BME280;34426;52.180;4.462;2023-05-03T01:34:57;103056.94;;;5.85;79.40
48630;BME280;34426;52.180;4.462;2023-05-03T01:37:26;103056.25;;;5.91;79.89
48630;BME280;34426;52.180;4.462;2023-05-03T01:39:57;103060.06;;;5.90;79.20
48630;BME280;34426;52.180;4.462;2023-05-03T01:42:25;103054.94;;;5.71;80.07
48630;BME280;34426;52.180;4.462;2023-05-03T01:44:52;103046.25;;;5.74;80.42
48630;BME280;34426;52.180;4.462;2023-05-03T01:47:19;103041.56;;;5.75;80.22
48630;BME280;34426;52.180;4.462;2023-05-03T01:49:44;103033.72;;;5.78;80.78
48630;BME280;34426;52.180;4.462;2023-05-03T01:52:10;103027.13;;;5.79;79.96
48630;BME280;34426;52.180;4.462;2023-05-03T01:54:35;103018.75;;;5.87;80.74
48630;BME280;34426;52.180;4.462;2023-05-03T01:57:00;103009.56;;;5.87;80.12
48630;BME280;34426;52.180;4.462;2023-05-03T01:59:27;103005.41;;;5.91;80.16
48630;BME280;34426;52.180;4.462;2023-05-03T02:01:53;102996.88;;;5.92;79.22
48630;BME280;34426;52.180;4.462;2023-05-03T02:04:18;102999.97;;;5.97;79.46
48630;BME280;34426;52.180;4.462;2023-05-03T02:06:44;102985.22;;;5.97;78.35
48630;BME280;34426;52.180;4.462;2023-05-03T02:09:09;102984.53;;;5.95;79.02
48630;BME280;34426;52.180;4.462;2023-05-03T02:11:34;102990.78;;;5.97;79.24
48630;BME280;34426;52.180;4.462;2023-05-03T02:14:00;103002.44;;;5.92;79.57
48630;BME280;34426;52.180;4.462;2023-05-03T02:16:27;103008.66;;;5.94;80.04
48630;BME280;34426;52.180;4.462;2023-05-03T02:18:52;103009.38;;;5.88;80.41
48630;BME280;34426;52.180;4.462;2023-05-03T02:21:18;103019.13;;;5.84;80.48
48630;BME280;34426;52.180;4.462;2023-05-03T02:23:43;103021.97;;;5.68;80.69
48630;BME280;34426;52.180;4.462;2023-05-03T02:26:08;103015.94;;;5.64;80.92
48630;BME280;34426;52.180;4.462;2023-05-03T02:28:34;103018.34;;;5.67;81.87
48630;BME280;34426;52.180;4.462;2023-05-03T02:30:59;103028.66;;;5.59;81.86
48630;BME280;34426;52.180;4.462;2023-05-03T02:33:26;103032.47;;;5.58;81.73
48630;BME280;34426;52.180;4.462;2023-05-03T02:35:52;103036.00;;;5.44;82.12
48630;BME280;34426;52.180;4.462;2023-05-03T02:38:17;103025.25;;;5.41;81.36
48630;BME280;34426;52.180;4.462;2023-05-03T02:40:42;103040.91;;;5.33;81.51
48630;BME280;34426;52.180;4.462;2023-05-03T02:43:08;103038.47;;;5.30;82.38
48630;BME280;34426;52.180;4.462;2023-05-03T02:45:34;103038.47;;;5.39;82.31
48630;BME280;34426;52.180;4.462;2023-05-03T02:47:59;103041.25;;;5.30;81.42
48630;BME280;34426;52.180;4.462;2023-05-03T02:50:26;103039.19;;;5.24;81.94
48630;BME280;34426;52.180;4.462;2023-05-03T02:52:52;103032.34;;;5.04;83.48
48630;BME280;34426;52.180;4.462;2023-05-03T02:55:17;103034.13;;;4.89;83.35
48630;BME280;34426;52.180;4.462;2023-05-03T02:57:43;103038.97;;;4.87;84.03
48630;BME280;34426;52.180;4.462;2023-05-03T03:00:10;103040.66;;;5.04;83.75
48630;BME280;34426;52.180;4.462;2023-05-03T03:02:35;103049.66;;;5.14;83.03
48630;BME280;34426;52.180;4.462;2023-05-03T03:05:01;103047.59;;;5.08;83.77
48630;BME280;34426;52.180;4.462;2023-05-03T03:07:28;103052.28;;;5.08;83.62
48630;BME280;34426;52.180;4.462;2023-05-03T03:09:53;103062.00;;;5.04;83.05
48630;BME280;34426;52.180;4.462;2023-05-03T03:12:18;103067.53;;;5.04;83.78
48630;BME280;34426;52.180;4.462;2023-05-03T03:14:44;103060.97;;;5.05;83.75
48630;BME280;34426;52.180;4.462;2023-05-03T03:17:10;103065.50;;;4.89;83.48
48630;BME280;34426;52.180;4.462;2023-05-03T03:19:35;103063.25;;;4.85;83.97
48630;BME280;34426;52.180;4.462;2023-05-03T03:22:00;103059.25;;;4.79;84.45
48630;BME280;34426;52.180;4.462;2023-05-03T03:24:27;103055.31;;;4.74;84.29
48630;BME280;34426;52.180;4.462;2023-05-03T03:26:53;103048.72;;;4.75;84.35
48630;BME280;34426;52.180;4.462;2023-05-03T03:29:18;103047.00;;;4.65;85.49
48630;BME280;34426;52.180;4.462;2023-05-03T03:31:44;103054.28;;;4.66;85.25
48630;BME280;34426;52.180;4.462;2023-05-03T03:34:09;103056.00;;;4.67;85.03
48630;BME280;34426;52.180;4.462;2023-05-03T03:36:35;103061.91;;;4.64;85.74
48630;BME280;34426;52.180;4.462;2023-05-03T03:39:01;103060.88;;;4.57;85.41
48630;BME280;34426;52.180;4.462;2023-05-03T03:41:28;103059.13;;;4.56;85.16
48630;BME280;34426;52.180;4.462;2023-05-03T03:43:53;103061.91;;;4.64;85.69
48630;BME280;34426;52.180;4.462;2023-05-03T03:46:19;103067.78;;;4.61;86.27
48630;BME280;34426;52.180;4.462;2023-05-03T03:48:44;103064.31;;;4.59;86.06
48630;BME280;34426;52.180;4.462;2023-05-03T03:51:10;103068.81;;;4.60;85.33
48630;BME280;34426;52.180;4.462;2023-05-03T03:53:35;103079.56;;;4.63;85.88
48630;BME280;34426;52.180;4.462;2023-05-03T03:56:00;103075.06;;;4.62;85.28
48630;BME280;34426;52.180;4.462;2023-05-03T03:58:27;103079.03;;;4.52;85.67
48630;BME280;34426;52.180;4.462;2023-05-03T04:00:53;103092.38;;;4.48;86.30
48630;BME280;34426;52.180;4.462;2023-05-03T04:03:18;103094.47;;;4.46;86.61
48630;BME280;34426;52.180;4.462;2023-05-03T04:05:44;103101.03;;;4.45;85.95
48630;BME280;34426;52.180;4.462;2023-05-03T04:08:09;103104.16;;;4.42;86.27
48630;BME280;34426;52.180;4.462;2023-05-03T04:10:34;103100.34;;;4.35;86.35
48630;BME280;34426;52.180;4.462;2023-05-03T04:13:00;103102.06;;;4.44;86.85
48630;BME280;34426;52.180;4.462;2023-05-03T04:15:27;103093.44;;;4.31;86.67
48630;BME280;34426;52.180;4.462;2023-05-03T04:17:52;103091.34;;;4.33;87.60
48630;BME280;34426;52.180;4.462;2023-05-03T04:20:17;103087.50;;;4.34;87.72
48630;BME280;34426;52.180;4.462;2023-05-03T04:22:43;103086.81;;;4.40;86.59
48630;BME280;34426;52.180;4.462;2023-05-03T04:25:10;103080.09;;;4.43;86.98
48630;BME280;34426;52.180;4.462;2023-05-03T04:27:36;103083.72;;;4.35;86.56
48630;BME280;34426;52.180;4.462;2023-05-03T04:30:02;103082.16;;;4.24;87.79
48630;BME280;34426;52.180;4.462;2023-05-03T04:32:28;103087.38;;;4.27;87.70
48630;BME280;34426;52.180;4.462;2023-05-03T04:34:54;103088.75;;;4.31;87.71
48630;BME280;34426;52.180;4.462;2023-05-03T04:37:21;103086.66;;;4.25;87.89
48630;BME280;34426;52.180;4.462;2023-05-03T04:39:46;103080.44;;;4.23;88.36
48630;BME280;34426;52.180;4.462;2023-05-03T04:42:12;103087.00;;;4.14;88.33
48630;BME280;34426;52.180;4.462;2023-05-03T04:44:37;103081.31;;;4.24;88.30
48630;BME280;34426;52.180;4.462;2023-05-03T04:47:03;103090.97;;;4.36;87.99
48630;BME280;34426;52.180;4.462;2023-05-03T04:49:30;103093.25;;;4.49;88.04
48630;BME280;34426;52.180;4.462;2023-05-03T04:51:55;103091.34;;;4.57;87.48
48630;BME280;34426;52.180;4.462;2023-05-03T04:54:20;103082.69;;;4.44;86.72
48630;BME280;34426;52.180;4.462;2023-05-03T04:56:46;103084.06;;;4.56;87.64
48630;BME280;34426;52.180;4.462;2023-05-03T04:59:11;103084.06;;;4.64;87.45
48630;BME280;34426;52.180;4.462;2023-05-03T05:01:37;103084.41;;;4.61;88.54
48630;BME280;34426;52.180;4.462;2023-05-03T05:04:03;103089.44;;;4.66;88.72
48630;BME280;34426;52.180;4.462;2023-05-03T05:06:29;103080.94;;;4.76;88.98
48630;BME280;34426;52.180;4.462;2023-05-03T05:08:55;103092.00;;;4.84;89.13
48630;BME280;34426;52.180;4.462;2023-05-03T05:11:20;103087.16;;;4.94;88.25
48630;BME280;34426;52.180;4.462;2023-05-03T05:13:46;103087.13;;;5.02;88.57
48630;BME280;34426;52.180;4.462;2023-05-03T05:16:14;103092.50;;;5.04;88.44
48630;BME280;34426;52.180;4.462;2023-05-03T05:18:40;103091.78;;;5.18;88.90
48630;BME280;34426;52.180;4.462;2023-05-03T05:21:05;103092.41;;;5.28;88.18
48630;BME280;34426;52.180;4.462;2023-05-03T05:23:32;103091.53;;;5.35;87.69
48630;BME280;34426;52.180;4.462;2023-05-03T05:25:58;103094.97;;;5.46;86.94
48630;BME280;34426;52.180;4.462;2023-05-03T05:28:23;103105.69;;;5.57;86.01
48630;BME280;34426;52.180;4.462;2023-05-03T05:30:49;103106.50;;;5.65;86.31
48630;BME280;34426;52.180;4.462;2023-05-03T05:33:14;103110.78;;;5.76;85.89
48630;BME280;34426;52.180;4.462;2023-05-03T05:35:39;103109.91;;;5.84;85.20
48630;BME280;34426;52.180;4.462;2023-05-03T05:38:05;103104.16;;;5.93;84.74
48630;BME280;34426;52.180;4.462;2023-05-03T05:40:32;103101.88;;;5.97;83.73
48630;BME280;34426;52.180;4.462;2023-05-03T05:42:57;103097.13;;;6.06;83.10
48630;BME280;34426;52.180;4.462;2023-05-03T05:45:23;103101.94;;;6.12;82.33
48630;BME280;34426;52.180;4.462;2023-05-03T05:47:48;103099.47;;;6.17;82.69
48630;BME280;34426;52.180;4.462;2023-05-03T05:50:13;103109.50;;;6.26;81.28
48630;BME280;34426;52.180;4.462;2023-05-03T05:52:39;103106.66;;;6.34;81.08
48630;BME280;34426;52.180;4.462;2023-05-03T05:55:05;103108.41;;;6.35;77.11
48630;BME280;34426;52.180;4.462;2023-05-03T05:57:32;103101.34;;;6.47;78.38
48630;BME280;34426;52.180;4.462;2023-05-03T05:59:57;103099.34;;;6.56;77.32
48630;BME280;34426;52.180;4.462;2023-05-03T06:02:23;103096.13;;;6.67;75.87
48630;BME280;34426;52.180;4.462;2023-05-03T06:04:48;103093.84;;;6.71;75.33
48630;BME280;34426;52.180;4.462;2023-05-03T06:07:14;103108.06;;;6.76;75.08
48630;BME280;34426;52.180;4.462;2023-05-03T06:09:39;103107.63;;;6.87;74.82
48630;BME280;34426;52.180;4.462;2023-05-03T06:12:05;103109.34;;;6.88;74.71
48630;BME280;34426;52.180;4.462;2023-05-03T06:14:32;103109.91;;;6.98;74.03
48630;BME280;34426;52.180;4.462;2023-05-03T06:16:57;103115.47;;;6.98;73.67
48630;BME280;34426;52.180;4.462;2023-05-03T06:19:23;103115.41;;;7.06;72.79
48630;BME280;34426;52.180;4.462;2023-05-03T06:21:48;103110.44;;;7.16;73.45
48630;BME280;34426;52.180;4.462;2023-05-03T06:24:15;103113.44;;;7.29;72.34
48630;BME280;34426;52.180;4.462;2023-05-03T06:26:40;103098.53;;;7.37;72.25
48630;BME280;34426;52.180;4.462;2023-05-03T06:29:06;103095.84;;;7.44;71.93
48630;BME280;34426;52.180;4.462;2023-05-03T06:31:33;103097.00;;;7.49;69.64
48630;BME280;34426;52.180;4.462;2023-05-03T06:33:58;103095.94;;;7.50;69.25
48630;BME280;34426;52.180;4.462;2023-05-03T06:36:24;103093.25;;;7.57;68.05
48630;BME280;34426;52.180;4.462;2023-05-03T06:38:49;103084.78;;;7.65;68.83
48630;BME280;34426;52.180;4.462;2023-05-03T06:41:15;103082.69;;;7.67;67.51
48630;BME280;34426;52.180;4.462;2023-05-03T06:43:40;103080.72;;;7.82;67.44
48630;BME280;34426;52.180;4.462;2023-05-03T06:46:05;103082.44;;;7.83;66.83
48630;BME280;34426;52.180;4.462;2023-05-03T06:48:32;103073.09;;;7.91;65.76
48630;BME280;34426;52.180;4.462;2023-05-03T06:50:58;103079.94;;;7.88;66.78
48630;BME280;34426;52.180;4.462;2023-05-03T06:53:23;103073.78;;;7.93;67.06
48630;BME280;34426;52.180;4.462;2023-05-03T06:55:49;103074.34;;;8.03;66.75
48630;BME280;34426;52.180;4.462;2023-05-03T06:58:14;103071.69;;;8.16;66.22
48630;BME280;34426;52.180;4.462;2023-05-03T07:00:40;103077.47;;;8.15;65.49
48630;BME280;34426;52.180;4.462;2023-05-03T07:03:05;103076.03;;;8.19;65.27
48630;BME280;34426;52.180;4.462;2023-05-03T07:05:32;103077.75;;;8.20;63.57
48630;BME280;34426;52.180;4.462;2023-05-03T07:07:58;103074.97;;;8.20;64.04
48630;BME280;34426;52.180;4.462;2023-05-03T07:10:23;103073.75;;;8.29;65.22
48630;BME280;34426;52.180;4.462;2023-05-03T07:12:49;103064.22;;;8.38;64.14
48630;BME280;34426;52.180;4.462;2023-05-03T07:15:14;103064.50;;;8.43;64.67
48630;BME280;34426;52.180;4.462;2023-05-03T07:17:40;103058.38;;;8.54;64.27
48630;BME280;34426;52.180;4.462;2023-05-03T07:20:06;103052.81;;;8.54;63.31
48630;BME280;34426;52.180;4.462;2023-05-03T07:22:33;103052.16;;;8.52;62.83
48630;BME280;34426;52.180;4.462;2023-05-03T07:24:59;103044.25;;;8.56;63.28
48630;BME280;34426;52.180;4.462;2023-05-03T07:27:24;103046.44;;;8.60;64.08
48630;BME280;34426;52.180;4.462;2023-05-03T07:29:50;103043.94;;;8.72;63.15
48630;BME280;34426;52.180;4.462;2023-05-03T07:32:15;103032.81;;;8.79;62.89
48630;BME280;34426;52.180;4.462;2023-05-03T07:34:41;103028.56;;;8.83;61.57
48630;BME280;34426;52.180;4.462;2023-05-03T07:37:06;103032.41;;;8.82;60.09
48630;BME280;34426;52.180;4.462;2023-05-03T07:39:33;103038.00;;;8.82;60.60
48630;BME280;34426;52.180;4.462;2023-05-03T07:41:58;103031.22;;;8.91;60.14
48630;BME280;34426;52.180;4.462;2023-05-03T07:44:24;103037.44;;;8.93;60.15
48630;BME280;34426;52.180;4.462;2023-05-03T07:46:49;103036.38;;;8.94;60.60
48630;BME280;34426;52.180;4.462;2023-05-03T07:49:15;103036.63;;;8.99;62.51
48630;BME280;34426;52.180;4.462;2023-05-03T07:51:40;103031.31;;;9.04;60.57
48630;BME280;34426;52.180;4.462;2023-05-03T07:54:06;103036.38;;;8.94;61.24
48630;BME280;34426;52.180;4.462;2023-05-03T07:56:33;103044.59;;;9.02;60.10
48630;BME280;34426;52.180;4.462;2023-05-03T07:58:58;103034.56;;;9.14;61.09
48630;BME280;34426;52.180;4.462;2023-05-03T08:01:24;103021.94;;;9.18;61.00
48630;BME280;34426;52.180;4.462;2023-05-03T08:03:50;103033.53;;;9.22;60.01
48630;BME280;34426;52.180;4.462;2023-05-03T08:06:15;103034.41;;;9.22;60.48
48630;BME280;34426;52.180;4.462;2023-05-03T08:08:41;103037.69;;;9.32;59.31
48630;BME280;34426;52.180;4.462;2023-05-03T08:11:06;103034.25;;;9.30;59.05
48630;BME280;34426;52.180;4.462;2023-05-03T08:13:33;103051.69;;;9.39;59.79
48630;BME280;34426;52.180;4.462;2023-05-03T08:15:59;103043.56;;;9.44;59.72
48630;BME280;34426;52.180;4.462;2023-05-03T08:18:25;103040.59;;;9.52;59.85
48630;BME280;34426;52.180;4.462;2023-05-03T08:20:50;103046.69;;;9.69;58.63
48630;BME280;34426;52.180;4.462;2023-05-03T08:23:16;103043.72;;;9.77;58.57
48630;BME280;34426;52.180;4.462;2023-05-03T08:25:41;103042.00;;;9.83;58.49
48630;BME280;34426;52.180;4.462;2023-05-03T08:28:07;103044.59;;;9.84;58.36
48630;BME280;34426;52.180;4.462;2023-05-03T08:30:34;103058.84;;;10.02;59.52
48630;BME280;34426;52.180;4.462;2023-05-03T08:33:00;103050.66;;;10.01;57.48
48630;BME280;34426;52.180;4.462;2023-05-03T08:35:25;103047.63;;;9.89;57.60
48630;BME280;34426;52.180;4.462;2023-05-03T08:37:50;103052.81;;;9.92;57.62
48630;BME280;34426;52.180;4.462;2023-05-03T08:40:16;103055.19;;;10.02;58.41
48630;BME280;34426;52.180;4.462;2023-05-03T08:42:42;103055.84;;;10.11;58.23
48630;BME280;34426;52.180;4.462;2023-05-03T08:45:12;103055.22;;;10.15;57.66
48630;BME280;34426;52.180;4.462;2023-05-03T08:47:39;103054.13;;;10.10;57.79
48630;BME280;34426;52.180;4.462;2023-05-03T08:50:06;103056.72;;;10.18;56.54
48630;BME280;34426;52.180;4.462;2023-05-03T08:52:33;103063.69;;;10.35;56.95
48630;BME280;34426;52.180;4.462;2023-05-03T08:54:58;103057.69;;;10.38;57.09
48630;BME280;34426;52.180;4.462;2023-05-03T08:57:24;103053.38;;;10.49;56.95
48630;BME280;34426;52.180;4.462;2023-05-03T08:59:52;103059.84;;;10.62;56.23
48630;BME280;34426;52.180;4.462;2023-05-03T09:02:17;103049.69;;;10.48;55.05
48630;BME280;34426;52.180;4.462;2023-05-03T09:04:44;103047.31;;;10.45;55.39
48630;BME280;34426;52.180;4.462;2023-05-03T09:07:11;103049.72;;;10.61;54.69
48630;BME280;34426;52.180;4.462;2023-05-03T09:09:37;103049.50;;;10.70;55.91
48630;BME280;34426;52.180;4.462;2023-05-03T09:12:03;103049.72;;;10.68;55.20
48630;BME280;34426;52.180;4.462;2023-05-03T09:14:28;103036.59;;;10.82;56.60
48630;BME280;34426;52.180;4.462;2023-05-03T09:16:54;103043.50;;;10.79;55.76
48630;BME280;34426;52.180;4.462;2023-05-03T09:19:19;103045.41;;;10.92;56.50
48630;BME280;34426;52.180;4.462;2023-05-03T09:21:46;103041.72;;;11.05;55.01
48630;BME280;34426;52.180;4.462;2023-05-03T09:24:13;103041.06;;;11.09;54.62
48630;BME280;34426;52.180;4.462;2023-05-03T09:26:38;103038.69;;;11.19;55.54
48630;BME280;34426;52.180;4.462;2023-05-03T09:29:04;103029.66;;;11.11;54.25
48630;BME280;34426;52.180;4.462;2023-05-03T09:31:30;103028.16;;;11.08;55.39
48630;BME280;34426;52.180;4.462;2023-05-03T09:33:57;103028.78;;;11.17;54.79
48630;BME280;34426;52.180;4.462;2023-05-03T09:36:23;103035.19;;;11.30;54.40
48630;BME280;34426;52.180;4.462;2023-05-03T09:38:50;103037.75;;;11.39;54.51
48630;BME280;34426;52.180;4.462;2023-05-03T09:41:25;103042.50;;;11.45;53.13
48630;BME280;34426;52.180;4.462;2023-05-03T09:43:51;103043.34;;;11.52;53.39
48630;BME280;34426;52.180;4.462;2023-05-03T09:46:17;103048.47;;;11.68;52.77
48630;BME280;34426;52.180;4.462;2023-05-03T09:48:43;103045.59;;;11.75;52.35
48630;BME280;34426;52.180;4.462;2023-05-03T09:51:10;103053.16;;;11.74;52.75
48630;BME280;34426;52.180;4.462;2023-05-03T09:53:36;103047.53;;;11.87;53.19
48630;BME280;34426;52.180;4.462;2023-05-03T09:56:05;103045.19;;;11.78;52.23
48630;BME280;34426;52.180;4.462;2023-05-03T09:58:31;103046.19;;;11.96;52.43
48630;BME280;34426;52.180;4.462;2023-05-03T10:00:58;103049.47;;;11.87;53.41
48630;BME280;34426;52.180;4.462;2023-05-03T10:03:30;103040.38;;;11.91;53.08
48630;BME280;34426;52.180;4.462;2023-05-03T10:05:57;103037.06;;;12.08;52.66
48630;BME280;34426;52.180;4.462;2023-05-03T10:08:32;103042.13;;;12.24;52.27
48630;BME280;34426;52.180;4.462;2023-05-03T10:11:04;103037.47;;;12.11;53.55
48630;BME280;34426;52.180;4.462;2023-05-03T10:13:32;103035.69;;;12.17;52.10
48630;BME280;34426;52.180;4.462;2023-05-03T10:16:00;103030.00;;;12.30;52.01
48630;BME280;34426;52.180;4.462;2023-05-03T10:18:29;103030.09;;;12.48;51.15
48630;BME280;34426;52.180;4.462;2023-05-03T10:21:01;103026.84;;;12.51;52.37
48630;BME280;34426;52.180;4.462;2023-05-03T10:23:28;103020.00;;;12.65;53.11
48630;BME280;34426;52.180;4.462;2023-05-03T10:26:12;103026.38;;;12.79;51.56
48630;BME280;34426;52.180;4.462;2023-05-03T10:28:38;103024.06;;;12.70;51.01
48630;BME280;34426;52.180;4.462;2023-05-03T10:31:04;103030.00;;;12.86;52.00
48630;BME280;34426;52.180;4.462;2023-05-03T10:33:30;103023.84;;;12.96;49.26
48630;BME280;34426;52.180;4.462;2023-05-03T10:35:56;103022.28;;;13.00;48.41
48630;BME280;34426;52.180;4.462;2023-05-03T10:38:23;103013.72;;;12.95;50.88
48630;BME280;34426;52.180;4.462;2023-05-03T10:40:49;103012.34;;;13.22;47.69
48630;BME280;34426;52.180;4.462;2023-05-03T10:43:41;103011.81;;;13.07;48.51
48630;BME280;34426;52.180;4.462;2023-05-03T10:46:10;103013.47;;;13.15;52.13
48630;BME280;34426;52.180;4.462;2023-05-03T10:49:15;103015.19;;;13.41;49.60
48630;BME280;34426;52.180;4.462;2023-05-03T10:51:41;103001.44;;;13.32;46.88
48630;BME280;34426;52.180;4.462;2023-05-03T10:54:06;103008.47;;;13.42;50.70
48630;BME280;34426;52.180;4.462;2023-05-03T10:56:32;103009.69;;;13.64;49.54
48630;BME280;34426;52.180;4.462;2023-05-03T10:58:58;103004.16;;;13.87;49.67
48630;BME280;34426;52.180;4.462;2023-05-03T11:01:25;103003.22;;;13.63;47.21
48630;BME280;34426;52.180;4.462;2023-05-03T11:03:54;103008.66;;;13.77;47.54
48630;BME280;34426;52.180;4.462;2023-05-03T11:06:30;102996.56;;;13.76;47.66
48630;BME280;34426;52.180;4.462;2023-05-03T11:08:55;103000.75;;;13.85;48.41
48630;BME280;34426;52.180;4.462;2023-05-03T11:11:21;102987.28;;;13.87;47.65
48630;BME280;34426;52.180;4.462;2023-05-03T11:13:49;102986.34;;;13.93;48.18
48630;BME280;34426;52.180;4.462;2023-05-03T11:16:16;102990.25;;;13.92;49.21
48630;BME280;34426;52.180;4.462;2023-05-03T11:18:42;102989.22;;;14.05;50.08
48630;BME280;34426;52.180;4.462;2023-05-03T11:21:07;102985.19;;;14.13;46.60
48630;BME280;34426;52.180;4.462;2023-05-03T11:23:37;102981.88;;;14.04;48.04
48630;BME280;34426;52.180;4.462;2023-05-03T11:26:04;102982.38;;;14.13;46.68
48630;BME280;34426;52.180;4.462;2023-05-03T11:28:30;102975.66;;;14.14;46.51
48630;BME280;34426;52.180;4.462;2023-05-03T11:30:55;102967.00;;;14.27;46.45
48630;BME280;34426;52.180;4.462;2023-05-03T11:33:22;102968.06;;;14.14;48.80
48630;BME280;34426;52.180;4.462;2023-05-03T11:35:48;102965.28;;;14.26;46.39
48630;BME280;34426;52.180;4.462;2023-05-03T11:38:13;102957.88;;;14.43;47.78
48630;BME280;34426;52.180;4.462;2023-05-03T11:40:39;102953.41;;;14.24;48.55
48630;BME280;34426;52.180;4.462;2023-05-03T11:43:04;102949.75;;;14.35;49.12
48630;BME280;34426;52.180;4.462;2023-05-03T11:45:31;102949.34;;;14.61;47.23
48630;BME280;34426;52.180;4.462;2023-05-03T11:48:02;102952.91;;;14.69;47.37
48630;BME280;34426;52.180;4.462;2023-05-03T11:53:35;102940.00;;;14.96;47.80
48630;BME280;34426;52.180;4.462;2023-05-03T11:56:01;102930.69;;;14.84;46.24
48630;BME280;34426;52.180;4.462;2023-05-03T11:58:27;102932.06;;;14.93;47.86
48630;BME280;34426;52.180;4.462;2023-05-03T12:00:54;102925.06;;;15.07;45.11
48630;BME280;34426;52.180;4.462;2023-05-03T12:03:21;102936.44;;;15.12;47.43
48630;BME280;34426;52.180;4.462;2023-05-03T12:05:47;102927.81;;;15.19;45.51
48630;BME280;34426;52.180;4.462;2023-05-03T12:08:13;102917.63;;;15.29;45.40
48630;BME280;34426;52.180;4.462;2023-05-03T12:10:40;102924.16;;;15.18;46.37
48630;BME280;34426;52.180;4.462;2023-05-03T12:13:06;102914.31;;;15.32;45.36
48630;BME280;34426;52.180;4.462;2023-05-03T12:15:32;102915.66;;;15.42;46.20
48630;BME280;34426;52.180;4.462;2023-05-03T12:17:59;102907.94;;;15.37;45.62
48630;BME280;34426;52.180;4.462;2023-05-03T12:20:25;102907.78;;;15.44;45.85
48630;BME280;34426;52.180;4.462;2023-05-03T12:22:52;102904.72;;;15.57;46.32
48630;BME280;34426;52.180;4.462;2023-05-03T12:25:18;102898.94;;;15.80;48.08
48630;BME280;34426;52.180;4.462;2023-05-03T12:27:45;102896.66;;;16.11;45.61
48630;BME280;34426;52.180;4.462;2023-05-03T12:30:11;102891.56;;;16.24;44.60
48630;BME280;34426;52.180;4.462;2023-05-03T12:32:37;102893.53;;;16.24;43.19
48630;BME280;34426;52.180;4.462;2023-05-03T12:35:03;102883.66;;;16.10;42.59
48630;BME280;34426;52.180;4.462;2023-05-03T12:37:29;102876.06;;;16.10;44.10
48630;BME280;34426;52.180;4.462;2023-05-03T12:39:54;102869.63;;;16.48;45.23
48630;BME280;34426;52.180;4.462;2023-05-03T12:42:20;102872.97;;;16.79;44.06
48630;BME280;34426;52.180;4.462;2023-05-03T12:44:47;102869.09;;;17.07;42.26
48630;BME280;34426;52.180;4.462;2023-05-03T12:47:12;102865.41;;;17.06;40.60
48630;BME280;34426;52.180;4.462;2023-05-03T12:49:37;102862.28;;;17.73;42.47
48630;BME280;34426;52.180;4.462;2023-05-03T12:52:03;102864.09;;;17.62;39.86
48630;BME280;34426;52.180;4.462;2023-05-03T12:54:28;102862.28;;;17.73;40.04
48630;BME280;34426;52.180;4.462;2023-05-03T12:56:54;102861.75;;;18.08;39.65